createdAt,value
2022-11-27T00:01:36.177Z,0.60
2022-11-27T00:04:04.643Z,0.60
2022-11-27T00:06:35.013Z,0.60
2022-11-27T00:09:05.652Z,0.60
2022-11-27T00:11:33.964Z,0.40
2022-11-27T00:14:03.347Z,0.40
2022-11-27T00:16:33.673Z,0.40
2022-11-27T00:19:03.828Z,0.40
2022-11-27T00:21:34.939Z,0.10
2022-11-27T00:24:06.069Z,0.10
2022-11-27T00:26:37.824Z,0.10
2022-11-27T00:29:04.162Z,0.10
2022-11-27T00:31:36.436Z,0.10
2022-11-27T00:34:05.074Z,0.10
2022-11-27T00:36:34.267Z,0.10
2022-11-27T00:39:03.454Z,0.10
2022-11-27T00:41:33.320Z,0.50
2022-11-27T00:44:04.157Z,0.50
2022-11-27T00:46:34.498Z,0.50
2022-11-27T00:49:05.203Z,0.30
2022-11-27T00:54:04.050Z,0.30
2022-11-27T00:56:36.145Z,0.30
2022-11-27T00:59:06.005Z,0.10
2022-11-27T01:01:37.289Z,0.10
2022-11-27T01:06:34.118Z,0.10
2022-11-27T01:09:04.522Z,0.30
2022-11-27T01:11:35.024Z,0.30
2022-11-27T01:14:05.071Z,0.30
2022-11-27T01:16:34.117Z,0.30
2022-11-27T01:19:04.089Z,0.10
2022-11-27T01:21:34.426Z,0.10
2022-11-27T01:24:04.977Z,0.10
2022-11-27T01:26:33.354Z,0.10
2022-11-27T01:29:03.240Z,0.10
2022-11-27T01:31:34.186Z,0.10
2022-11-27T01:34:05.463Z,0.10
2022-11-27T01:39:03.856Z,0.30
2022-11-27T01:41:35.392Z,0.30
2022-11-27T01:44:24.704Z,0.30
2022-11-27T01:46:38.403Z,0.30
2022-11-27T01:49:20.298Z,0.40
2022-11-27T01:51:36.229Z,0.40
2022-11-27T01:54:03.959Z,0.40
2022-11-27T01:56:34.191Z,0.40
2022-11-27T01:59:03.805Z,0.10
2022-11-27T02:04:03.452Z,0.10
2022-11-27T02:06:33.287Z,0.10
2022-11-27T02:09:03.591Z,0.10
2022-11-27T02:11:43.760Z,0.10
2022-11-27T02:14:15.582Z,0.10
2022-11-27T02:16:43.167Z,0.10
2022-11-27T02:19:12.468Z,0.10
2022-11-27T02:21:43.646Z,0.10
2022-11-27T02:24:23.070Z,0.10
2022-11-27T02:26:53.054Z,0.10
2022-11-27T02:29:06.852Z,0.70
2022-11-27T02:31:39.508Z,0.70
2022-11-27T02:36:35.301Z,0.70
2022-11-27T02:39:08.647Z,0.30
2022-11-27T02:41:38.947Z,0.30
2022-11-27T02:44:06.945Z,0.30
2022-11-27T02:46:34.286Z,0.30
2022-11-27T02:49:10.155Z,0.30
2022-11-27T02:51:38.160Z,0.30
2022-11-27T02:54:06.450Z,0.30
2022-11-27T02:56:34.269Z,0.30
2022-11-27T02:59:08.973Z,1.30
2022-11-27T03:01:39.504Z,1.30
2022-11-27T03:04:08.837Z,1.30
2022-11-27T03:06:42.223Z,1.30
2022-11-27T03:11:35.395Z,0.30
2022-11-27T03:14:07.740Z,0.30
2022-11-27T03:16:38.789Z,0.30
2022-11-27T03:19:11.709Z,0.30
2022-11-27T03:21:38.003Z,0.30
2022-11-27T03:24:04.651Z,0.30
2022-11-27T03:26:34.122Z,0.30
2022-11-27T03:29:09.013Z,0.20
2022-11-27T03:31:33.718Z,0.20
2022-11-27T03:34:04.049Z,0.20
2022-11-27T03:36:33.286Z,0.20
2022-11-27T03:39:03.738Z,0.10
2022-11-27T03:41:44.325Z,0.10
2022-11-27T03:44:12.317Z,0.10
2022-11-27T03:46:45.575Z,0.10
2022-11-27T03:51:40.836Z,3.20
2022-11-27T03:54:11.987Z,3.20
2022-11-27T03:56:40.877Z,3.20
2022-11-27T03:59:08.742Z,0.10
2022-11-27T04:01:33.828Z,0.10
2022-11-27T04:04:03.576Z,0.10
2022-11-27T04:06:33.510Z,0.10
2022-11-27T04:09:03.836Z,0.50
2022-11-27T04:11:33.309Z,0.50
2022-11-27T04:14:03.525Z,0.50
2022-11-27T04:16:33.370Z,0.50
2022-11-27T04:19:03.557Z,1.00
2022-11-27T04:21:33.316Z,1.00
2022-11-27T04:24:03.588Z,1.00
2022-11-27T04:26:33.282Z,1.00
2022-11-27T04:29:03.366Z,0.10
2022-11-27T04:31:33.620Z,0.10
2022-11-27T04:34:03.316Z,0.10
2022-11-27T04:36:38.788Z,0.10
2022-11-27T04:39:03.344Z,0.50
2022-11-27T04:41:33.605Z,0.50
2022-11-27T04:44:03.931Z,0.50
2022-11-27T04:46:33.472Z,0.50
2022-11-27T04:49:03.322Z,0.50
2022-11-27T04:51:33.321Z,0.50
2022-11-27T04:54:04.401Z,0.50
2022-11-27T04:56:33.464Z,0.50
2022-11-27T04:59:03.263Z,0.20
2022-11-27T05:01:33.489Z,0.20
2022-11-27T05:04:03.526Z,0.20
2022-11-27T05:06:33.609Z,0.20
2022-11-27T05:09:03.731Z,0.10
2022-11-27T05:11:33.475Z,0.10
2022-11-27T05:14:13.753Z,0.10
2022-11-27T05:16:33.736Z,0.10
2022-11-27T05:21:33.904Z,0.40
2022-11-27T05:24:04.204Z,0.40
2022-11-27T05:26:34.064Z,0.40
2022-11-27T05:29:03.841Z,0.20
2022-11-27T05:31:33.913Z,0.20
2022-11-27T05:34:04.110Z,0.20
2022-11-27T05:36:36.085Z,0.20
2022-11-27T05:39:05.545Z,0.50
2022-11-27T05:44:04.076Z,0.50
2022-11-27T05:46:33.583Z,0.50
2022-11-27T05:49:05.236Z,0.10
2022-11-27T05:51:33.330Z,0.10
2022-11-27T05:54:03.427Z,0.10
2022-11-27T05:56:33.484Z,0.10
2022-11-27T06:01:33.394Z,0.50
2022-11-27T06:04:03.487Z,0.50
2022-11-27T06:06:33.577Z,0.50
2022-11-27T06:09:05.770Z,1.30
2022-11-27T06:11:33.342Z,1.30
2022-11-27T06:14:06.975Z,1.30
2022-11-27T06:16:33.409Z,1.30
2022-11-27T06:19:03.456Z,0.90
2022-11-27T06:21:33.346Z,0.90
2022-11-27T06:24:03.639Z,0.90
2022-11-27T06:26:34.002Z,0.90
2022-11-27T06:29:03.351Z,0.50
2022-11-27T06:31:33.511Z,0.50
2022-11-27T06:34:04.818Z,0.50
2022-11-27T06:36:35.200Z,0.50
2022-11-27T06:39:05.299Z,0.80
2022-11-27T06:41:33.454Z,0.80
2022-11-27T06:44:03.821Z,0.80
2022-11-27T06:46:33.488Z,0.80
2022-11-27T06:51:33.501Z,0.30
2022-11-27T06:54:03.691Z,0.30
2022-11-27T06:56:33.447Z,0.30
2022-11-27T06:59:03.339Z,0.30
2022-11-27T07:01:33.758Z,0.30
2022-11-27T07:04:03.805Z,0.30
2022-11-27T07:06:33.358Z,0.30
2022-11-27T07:09:03.746Z,0.20
2022-11-27T07:11:33.982Z,0.20
2022-11-27T07:14:04.450Z,0.20
2022-11-27T07:16:35.737Z,0.20
2022-11-27T07:19:06.308Z,0.10
2022-11-27T07:21:35.500Z,0.10
2022-11-27T07:24:03.748Z,0.10
2022-11-27T07:26:33.784Z,0.10
2022-11-27T07:29:03.625Z,0.10
2022-11-27T07:31:33.352Z,0.10
2022-11-27T07:34:05.846Z,0.10
2022-11-27T07:36:33.344Z,0.10
2022-11-27T07:41:34.154Z,0.30
2022-11-27T07:44:03.650Z,0.30
2022-11-27T07:46:33.388Z,0.30
2022-11-27T07:49:03.447Z,0.10
2022-11-27T07:51:33.511Z,0.10
2022-11-27T07:54:03.811Z,0.10
2022-11-27T07:56:33.358Z,0.10
2022-11-27T07:59:03.424Z,0.10
2022-11-27T08:01:33.447Z,0.10
2022-11-27T08:04:03.545Z,0.10
2022-11-27T08:06:33.676Z,0.10
2022-11-27T08:09:03.540Z,0.20
2022-11-27T08:11:34.284Z,0.20
2022-11-27T08:16:34.955Z,0.20
2022-11-27T08:19:03.559Z,0.10
2022-11-27T08:21:34.395Z,0.10
2022-11-27T08:24:03.893Z,0.10
2022-11-27T08:26:33.386Z,0.10
2022-11-27T08:29:05.570Z,0.30
2022-11-27T08:31:33.637Z,0.30
2022-11-27T08:34:03.433Z,0.30
2022-11-27T08:36:33.480Z,0.30
2022-11-27T08:39:03.385Z,0.30
2022-11-27T08:41:33.602Z,0.30
2022-11-27T08:44:08.027Z,0.30
2022-11-27T08:46:33.500Z,0.30
2022-11-27T08:49:03.547Z,0.20
2022-11-27T08:51:33.406Z,0.20
2022-11-27T08:54:03.930Z,0.20
2022-11-27T08:56:33.755Z,0.20
2022-11-27T08:59:03.447Z,0.10
2022-11-27T09:01:33.619Z,0.10
2022-11-27T09:04:04.254Z,0.10
2022-11-27T09:06:33.930Z,0.10
2022-11-27T09:09:05.242Z,0.60
2022-11-27T09:11:34.919Z,0.60
2022-11-27T09:14:04.922Z,0.60
2022-11-27T09:16:34.014Z,0.60
2022-11-27T09:19:04.284Z,0.10
2022-11-27T09:24:04.678Z,0.10
2022-11-27T09:26:33.442Z,0.10
2022-11-27T09:29:03.500Z,0.10
2022-11-27T09:31:33.690Z,0.10
2022-11-27T09:34:04.615Z,0.10
2022-11-27T09:36:33.669Z,0.10
2022-11-27T09:39:03.758Z,0.10
2022-11-27T09:41:41.602Z,0.10
2022-11-27T09:44:16.027Z,0.10
2022-11-27T09:46:36.656Z,0.10
2022-11-27T09:49:07.345Z,0.10
2022-11-27T09:51:37.472Z,0.10
2022-11-27T09:54:12.321Z,0.10
2022-11-27T09:56:35.482Z,0.10
2022-11-27T10:01:38.537Z,0.10
2022-11-27T10:04:03.509Z,0.10
2022-11-27T10:06:44.699Z,0.10
2022-11-27T10:09:15.035Z,0.10
2022-11-27T10:11:43.571Z,0.10
2022-11-27T10:14:22.723Z,0.10
2022-11-27T10:16:44.096Z,0.10
2022-11-27T10:19:11.789Z,0.20
2022-11-27T10:21:44.357Z,0.20
2022-11-27T10:24:15.228Z,0.20
2022-11-27T10:26:39.458Z,0.20
2022-11-27T10:29:13.611Z,0.10
2022-11-27T10:31:38.013Z,0.10
2022-11-27T10:34:14.764Z,0.10
2022-11-27T10:36:38.089Z,0.10
2022-11-27T10:39:10.486Z,0.10
2022-11-27T10:41:49.360Z,0.10
2022-11-27T10:44:21.409Z,0.10
2022-11-27T10:46:38.391Z,0.10
2022-11-27T10:51:37.141Z,0.10
2022-11-27T10:54:10.870Z,0.10
2022-11-27T10:56:49.946Z,0.10
2022-11-27T10:59:09.302Z,0.50
2022-11-27T11:01:42.008Z,0.50
2022-11-27T11:04:24.341Z,0.50
2022-11-27T11:06:38.950Z,0.50
2022-11-27T11:09:11.931Z,0.10
2022-11-27T11:11:33.602Z,0.10
2022-11-27T11:14:03.459Z,0.10
2022-11-27T11:16:41.844Z,0.10
2022-11-27T11:19:05.179Z,0.10
2022-11-27T11:21:37.407Z,0.10
2022-11-27T11:24:11.906Z,0.10
2022-11-27T11:26:37.053Z,0.10
2022-11-27T11:29:12.496Z,0.60
2022-11-27T11:31:37.765Z,0.60
2022-11-27T11:34:14.263Z,0.60
2022-11-27T11:36:35.034Z,0.60
2022-11-27T11:37:38.522Z,0.60
2022-11-27T11:39:03.673Z,0.30
2022-11-27T11:41:37.032Z,0.30
2022-11-27T11:44:04.158Z,0.30
2022-11-27T11:46:35.753Z,0.30
2022-11-27T11:49:22.089Z,0.60
2022-11-27T11:51:49.878Z,0.60
2022-11-27T11:54:15.680Z,0.60
2022-11-27T11:56:39.618Z,0.60
2022-11-27T11:59:10.736Z,0.30
2022-11-27T12:01:53.322Z,0.30
2022-11-27T12:04:21.792Z,0.30
2022-11-27T12:06:47.938Z,0.30
2022-11-27T12:09:17.510Z,1.30
2022-11-27T12:11:42.086Z,1.30
2022-11-27T12:14:17.432Z,1.30
2022-11-27T12:16:45.080Z,1.30
2022-11-27T12:19:23.214Z,0.50
2022-11-27T12:21:44.719Z,0.50
2022-11-27T12:24:19.001Z,0.50
2022-11-27T12:26:50.859Z,0.50
2022-11-27T12:29:23.351Z,0.30
2022-11-27T12:31:51.183Z,0.30
2022-11-27T12:34:06.286Z,0.30
2022-11-27T12:36:53.968Z,0.30
2022-11-27T12:39:13.544Z,0.70
2022-11-27T12:41:46.050Z,0.70
2022-11-27T12:44:16.973Z,0.70
2022-11-27T12:46:44.137Z,0.70
2022-11-27T12:49:12.690Z,0.50
2022-11-27T12:51:41.452Z,0.50
2022-11-27T12:56:39.700Z,0.50
2022-11-27T12:59:10.895Z,1.90
2022-11-27T13:01:40.861Z,1.90
2022-11-27T13:04:16.081Z,1.90
2022-11-27T13:06:41.075Z,1.90
2022-11-27T13:09:11.775Z,0.30
2022-11-27T13:11:38.103Z,0.30
2022-11-27T13:14:10.155Z,0.30
2022-11-27T13:16:37.401Z,0.30
2022-11-27T13:19:10.434Z,0.30
2022-11-27T13:21:35.389Z,0.30
2022-11-27T13:24:04.460Z,0.30
2022-11-27T13:26:39.734Z,0.30
2022-11-27T13:29:07.897Z,0.30
2022-11-27T13:31:38.140Z,0.30
2022-11-27T13:34:07.369Z,0.30
2022-11-27T13:36:38.190Z,0.30
2022-11-27T13:41:39.057Z,0.80
2022-11-27T13:44:08.886Z,0.80
2022-11-27T13:46:45.489Z,0.80
2022-11-27T13:51:36.679Z,0.50
2022-11-27T13:54:08.172Z,0.50
2022-11-27T13:56:34.019Z,0.50
2022-11-27T13:59:14.797Z,2.00
2022-11-27T14:01:33.581Z,2.00
2022-11-27T14:04:07.802Z,2.00
2022-11-27T14:06:33.652Z,2.00
2022-11-27T14:09:05.817Z,0.40
2022-11-27T14:11:39.176Z,0.40
2022-11-27T14:14:15.602Z,0.40
2022-11-27T14:16:36.151Z,0.40
2022-11-27T14:19:14.936Z,1.30
2022-11-27T14:21:40.833Z,1.30
2022-11-27T14:24:23.468Z,1.30
2022-11-27T14:26:33.507Z,1.30
2022-11-27T14:29:10.739Z,0.20
2022-11-27T14:31:34.858Z,0.20
2022-11-27T14:36:34.514Z,0.20
2022-11-27T14:39:04.251Z,0.10
2022-11-27T14:41:33.764Z,0.10
2022-11-27T14:44:05.393Z,0.10
2022-11-27T14:46:36.410Z,0.10
2022-11-27T14:49:03.529Z,0.20
2022-11-27T14:51:36.490Z,0.20
2022-11-27T14:54:10.703Z,0.20
2022-11-27T14:56:36.790Z,0.20
2022-11-27T14:59:03.748Z,0.10
2022-11-27T15:01:35.427Z,0.10
2022-11-27T15:04:06.134Z,0.10
2022-11-27T15:06:38.467Z,0.10
2022-11-27T15:11:54.700Z,0.10
2022-11-27T15:14:03.633Z,0.10
2022-11-27T15:19:04.756Z,0.30
2022-11-27T15:24:03.980Z,0.30
2022-11-27T15:26:36.891Z,0.30
2022-11-27T15:29:03.527Z,0.30
2022-11-27T15:31:36.386Z,0.30
2022-11-27T15:34:05.140Z,0.30
2022-11-27T15:36:36.411Z,0.30
2022-11-27T15:39:10.302Z,0.20
2022-11-27T15:41:33.613Z,0.20
2022-11-27T15:44:04.034Z,0.20
2022-11-27T15:46:34.478Z,0.20
2022-11-27T15:51:33.505Z,0.50
2022-11-27T15:54:03.665Z,0.50
2022-11-27T15:56:34.098Z,0.50
2022-11-27T15:59:03.829Z,0.30
2022-11-27T16:04:04.049Z,0.30
2022-11-27T16:06:34.984Z,0.30
2022-11-27T16:09:04.435Z,2.40
2022-11-27T16:11:34.105Z,2.40
2022-11-27T16:14:03.820Z,2.40
2022-11-27T16:16:34.532Z,2.40
2022-11-27T16:19:05.503Z,0.20
2022-11-27T16:21:34.482Z,0.20
2022-11-27T16:24:06.155Z,0.20
2022-11-27T16:26:34.120Z,0.20
2022-11-27T16:29:03.773Z,0.20
2022-11-27T16:31:34.256Z,0.20
2022-11-27T16:34:04.851Z,0.20
2022-11-27T16:36:33.954Z,0.20
2022-11-27T16:39:03.570Z,0.20
2022-11-27T16:41:33.732Z,0.20
2022-11-27T16:46:33.762Z,0.20
2022-11-27T16:49:05.534Z,1.90
2022-11-27T16:51:36.052Z,1.90
2022-11-27T16:54:06.875Z,1.90
2022-11-27T17:01:35.094Z,0.30
2022-11-27T17:04:07.773Z,0.30
2022-11-27T17:06:35.907Z,0.30
2022-11-27T17:11:36.302Z,0.50
2022-11-27T17:16:34.835Z,0.50
2022-11-27T17:19:04.149Z,0.50
2022-11-27T17:24:11.589Z,0.50
2022-11-27T17:26:34.339Z,0.50
2022-11-27T17:29:04.139Z,0.80
2022-11-27T17:31:36.122Z,0.80
2022-11-27T17:36:37.103Z,0.80
2022-11-27T17:39:05.040Z,0.20
2022-11-27T17:44:04.463Z,0.20
2022-11-27T17:46:35.295Z,0.20
2022-11-27T17:49:06.015Z,0.30
2022-11-27T17:51:35.048Z,0.30
2022-11-27T18:01:34.090Z,0.40
2022-11-27T18:06:34.993Z,0.40
2022-11-27T18:09:04.772Z,0.10
2022-11-27T18:11:33.664Z,0.10
2022-11-27T18:14:03.919Z,0.10
2022-11-27T18:19:06.119Z,0.60
2022-11-27T18:21:34.723Z,0.60
2022-11-27T18:27:00.591Z,0.60
2022-11-27T18:31:38.535Z,0.80
2022-11-27T18:34:04.492Z,0.80
2022-11-27T18:39:03.994Z,0.20
2022-11-27T18:41:33.778Z,0.20
2022-11-27T18:44:09.156Z,0.20
2022-11-27T18:46:33.697Z,0.20
2022-11-27T18:49:03.574Z,0.50
2022-11-27T19:06:36.318Z,0.10
2022-11-27T19:14:05.088Z,0.40
2022-11-27T19:19:04.822Z,0.30
2022-11-27T19:21:34.286Z,0.30
2022-11-27T19:24:04.445Z,0.30
2022-11-27T19:26:35.487Z,0.30
2022-11-27T19:34:05.381Z,0.20
2022-11-27T19:36:34.781Z,0.20
2022-11-27T19:49:06.366Z,0.10
2022-11-27T19:51:35.616Z,0.10
2022-11-27T19:54:10.283Z,0.10
2022-11-27T20:21:34.623Z,1.10
2022-11-27T20:24:04.339Z,1.10
2022-11-27T20:26:37.081Z,1.10
2022-11-27T20:29:03.802Z,0.30
2022-11-27T20:39:03.966Z,1.80
2022-11-27T20:41:33.683Z,1.80
2022-11-27T20:44:03.863Z,1.80
2022-11-27T20:46:33.904Z,1.80
2022-11-27T20:49:03.687Z,0.40
2022-11-27T20:54:04.201Z,0.40
2022-11-27T20:56:34.365Z,0.40
2022-11-27T20:59:04.086Z,0.80
2022-11-27T21:01:36.224Z,0.80
2022-11-27T21:06:39.260Z,0.80
2022-11-27T21:09:06.606Z,0.40
2022-11-27T21:11:35.778Z,0.40
2022-11-27T21:14:05.912Z,0.40
2022-11-27T21:16:37.012Z,0.40
2022-11-27T21:19:06.452Z,0.50
2022-11-27T21:21:34.009Z,0.50
2022-11-27T21:26:34.203Z,0.50
2022-11-27T21:34:05.765Z,0.10
2022-11-27T21:39:06.361Z,0.30
2022-11-27T21:44:04.519Z,0.30
2022-11-27T21:46:34.710Z,0.30
2022-11-27T21:51:33.624Z,0.20
2022-11-27T21:56:36.830Z,0.20
2022-11-27T21:59:04.686Z,0.30
2022-11-27T22:01:33.761Z,0.30
2022-11-27T22:09:11.847Z,0.40
2022-11-27T22:11:34.200Z,0.40
2022-11-27T22:14:06.043Z,0.40
2022-11-27T22:16:38.707Z,0.40
2022-11-27T22:19:04.002Z,0.60
2022-11-27T22:24:04.394Z,0.60
2022-11-27T22:26:33.651Z,0.60
2022-11-27T22:29:04.997Z,1.00
2022-11-27T22:31:33.600Z,1.00
2022-11-27T22:34:03.728Z,1.00
2022-11-27T22:36:34.522Z,1.00
2022-11-27T22:39:05.923Z,0.10
2022-11-27T22:44:04.247Z,0.10
2022-11-27T22:46:35.177Z,0.10
2022-11-27T22:49:05.772Z,0.30
2022-11-27T22:51:35.358Z,0.30
2022-11-27T22:54:06.266Z,0.30
2022-11-27T22:56:34.997Z,0.60
2022-11-27T22:59:30.466Z,0.60
2022-11-27T23:01:33.798Z,0.60
2022-11-27T23:04:03.824Z,0.60
2022-11-27T23:06:34.089Z,1.10
2022-11-27T23:09:04.514Z,1.10
2022-11-27T23:11:33.703Z,1.10
2022-11-27T23:14:04.154Z,1.10
2022-11-27T23:16:33.963Z,0.10
2022-11-27T23:21:36.472Z,0.10
2022-11-27T23:24:04.095Z,0.10
2022-11-27T23:26:35.097Z,0.60
2022-11-27T23:29:03.948Z,0.60
2022-11-27T23:31:35.798Z,0.60
2022-11-27T23:34:06.569Z,0.60
2022-11-27T23:36:34.884Z,0.10
2022-11-27T23:39:11.127Z,0.10
2022-11-27T23:44:03.727Z,0.10
2022-11-27T23:46:33.965Z,0.70
2022-11-27T23:51:33.829Z,0.70
2022-11-27T23:54:07.406Z,0.70
2022-11-27T23:56:34.121Z,0.50
2022-11-27T23:59:04.593Z,0.50
